sensor_id;sensor_type;location;lat;lon;timestamp;P1;durP1;ratioP1;P2;durP2;ratioP2
30515;SDS011;17297;54.022;10.760;2023-01-01T00:02:12;8.23;;;6.10;;
30515;SDS011;17297;54.022;10.760;2023-01-01T00:04:37;8.20;;;6.65;;
30515;SDS011;17297;54.022;10.760;2023-01-01T00:07:03;7.60;;;5.68;;
30515;SDS011;17297;54.022;10.760;2023-01-01T00:09:29;15.35;;;7.65;;
30515;SDS011;17297;54.022;10.760;2023-01-01T00:12:13;7.93;;;7.07;;
30515;SDS011;17297;54.022;10.760;2023-01-01T00:14:38;7.97;;;6.28;;
30515;SDS011;17297;54.022;10.760;2023-01-01T00:17:06;9.98;;;7.63;;
30515;SDS011;17297;54.022;10.760;2023-01-01T00:19:32;9.15;;;7.03;;
30515;SDS011;17297;54.022;10.760;2023-01-01T00:21:57;12.27;;;7.93;;
30515;SDS011;17297;54.022;10.760;2023-01-01T00:24:23;10.05;;;8.20;;
30515;SDS011;17297;54.022;10.760;2023-01-01T00:26:49;10.07;;;8.95;;
30515;SDS011;17297;54.022;10.760;2023-01-01T00:29:14;11.65;;;9.32;;
30515;SDS011;17297;54.022;10.760;2023-01-01T00:31:40;15.35;;;9.27;;
30515;SDS011;17297;54.022;10.760;2023-01-01T00:34:05;11.00;;;7.70;;
30515;SDS011;17297;54.022;10.760;2023-01-01T00:36:31;14.52;;;10.32;;
30515;SDS011;17297;54.022;10.760;2023-01-01T00:38:57;11.95;;;10.75;;
30515;SDS011;17297;54.022;10.760;2023-01-01T00:41:22;12.65;;;9.90;;
30515;SDS011;17297;54.022;10.760;2023-01-01T00:43:48;11.80;;;8.82;;
30515;SDS011;17297;54.022;10.760;2023-01-01T00:46:14;14.20;;;8.30;;
30515;SDS011;17297;54.022;10.760;2023-01-01T00:48:39;11.48;;;7.72;;
30515;SDS011;17297;54.022;10.760;2023-01-01T00:51:05;11.00;;;8.13;;
30515;SDS011;17297;54.022;10.760;2023-01-01T00:53:31;11.07;;;8.52;;
30515;SDS011;17297;54.022;10.760;2023-01-01T00:55:57;8.68;;;6.18;;
30515;SDS011;17297;54.022;10.760;2023-01-01T00:58:23;8.20;;;6.07;;
30515;SDS011;17297;54.022;10.760;2023-01-01T01:00:49;7.53;;;6.07;;
30515;SDS011;17297;54.022;10.760;2023-01-01T01:03:16;8.98;;;6.20;;
30515;SDS011;17297;54.022;10.760;2023-01-01T01:05:58;9.13;;;5.43;;
30515;SDS011;17297;54.022;10.760;2023-01-01T01:08:36;7.82;;;5.28;;
30515;SDS011;17297;54.022;10.760;2023-01-01T01:11:22;6.75;;;5.05;;
30515;SDS011;17297;54.022;10.760;2023-01-01T01:13:50;6.85;;;3.97;;
30515;SDS011;17297;54.022;10.760;2023-01-01T01:18:44;7.47;;;4.70;;
30515;SDS011;17297;54.022;10.760;2023-01-01T01:21:10;5.10;;;3.50;;
30515;SDS011;17297;54.022;10.760;2023-01-01T01:23:39;4.97;;;4.25;;
30515;SDS011;17297;54.022;10.760;2023-01-01T01:26:05;4.95;;;3.60;;
30515;SDS011;17297;54.022;10.760;2023-01-01T01:28:38;6.22;;;3.40;;
30515;SDS011;17297;54.022;10.760;2023-01-01T01:31:04;7.13;;;3.55;;
30515;SDS011;17297;54.022;10.760;2023-01-01T01:33:29;6.80;;;4.30;;
30515;SDS011;17297;54.022;10.760;2023-01-01T01:35:55;6.53;;;4.40;;
30515;SDS011;17297;54.022;10.760;2023-01-01T01:38:20;6.35;;;3.53;;
30515;SDS011;17297;54.022;10.760;2023-01-01T01:40:46;6.60;;;3.70;;
30515;SDS011;17297;54.022;10.760;2023-01-01T01:49:12;5.60;;;3.88;;
30515;SDS011;17297;54.022;10.760;2023-01-01T01:51:41;5.40;;;3.72;;
30515;SDS011;17297;54.022;10.760;2023-01-01T01:54:15;5.75;;;3.78;;
30515;SDS011;17297;54.022;10.760;2023-01-01T01:56:54;4.88;;;3.67;;
30515;SDS011;17297;54.022;10.760;2023-01-01T01:59:30;6.30;;;4.20;;
30515;SDS011;17297;54.022;10.760;2023-01-01T02:02:00;5.55;;;4.28;;
30515;SDS011;17297;54.022;10.760;2023-01-01T02:04:26;6.07;;;4.18;;
30515;SDS011;17297;54.022;10.760;2023-01-01T02:06:52;7.32;;;4.40;;
30515;SDS011;17297;54.022;10.760;2023-01-01T02:09:19;5.53;;;3.83;;
30515;SDS011;17297;54.022;10.760;2023-01-01T02:11:45;3.90;;;3.55;;
30515;SDS011;17297;54.022;10.760;2023-01-01T02:14:10;4.47;;;3.88;;
30515;SDS011;17297;54.022;10.760;2023-01-01T02:16:38;6.32;;;3.85;;
30515;SDS011;17297;54.022;10.760;2023-01-01T02:19:11;4.50;;;3.33;;
30515;SDS011;17297;54.022;10.760;2023-01-01T02:27:40;4.82;;;2.80;;
30515;SDS011;17297;54.022;10.760;2023-01-01T02:30:12;4.82;;;2.90;;
30515;SDS011;17297;54.022;10.760;2023-01-01T02:32:40;6.60;;;3.22;;
30515;SDS011;17297;54.022;10.760;2023-01-01T02:35:13;5.40;;;3.22;;
30515;SDS011;17297;54.022;10.760;2023-01-01T02:37:59;3.85;;;3.03;;
30515;SDS011;17297;54.022;10.760;2023-01-01T02:40:29;5.50;;;3.25;;
30515;SDS011;17297;54.022;10.760;2023-01-01T02:42:56;5.28;;;2.67;;
30515;SDS011;17297;54.022;10.760;2023-01-01T02:45:22;4.85;;;3.13;;
30515;SDS011;17297;54.022;10.760;2023-01-01T02:47:48;6.18;;;3.25;;
30515;SDS011;17297;54.022;10.760;2023-01-01T02:50:15;4.40;;;2.67;;
30515;SDS011;17297;54.022;10.760;2023-01-01T02:53:06;5.53;;;2.95;;
30515;SDS011;17297;54.022;10.760;2023-01-01T03:01:33;4.47;;;3.17;;
30515;SDS011;17297;54.022;10.760;2023-01-01T03:09:30;4.70;;;2.83;;
30515;SDS011;17297;54.022;10.760;2023-01-01T03:15:06;4.83;;;2.97;;
30515;SDS011;17297;54.022;10.760;2023-01-01T03:17:40;5.45;;;2.67;;
30515;SDS011;17297;54.022;10.760;2023-01-01T03:20:20;4.88;;;3.03;;
30515;SDS011;17297;54.022;10.760;2023-01-01T03:22:50;5.78;;;3.53;;
30515;SDS011;17297;54.022;10.760;2023-01-01T03:25:21;4.57;;;2.78;;
30515;SDS011;17297;54.022;10.760;2023-01-01T03:27:50;6.10;;;3.15;;
30515;SDS011;17297;54.022;10.760;2023-01-01T03:30:21;6.45;;;3.15;;
30515;SDS011;17297;54.022;10.760;2023-01-01T03:32:55;5.18;;;2.95;;
30515;SDS011;17297;54.022;10.760;2023-01-01T03:35:36;4.28;;;2.70;;
30515;SDS011;17297;54.022;10.760;2023-01-01T03:38:07;5.72;;;3.03;;
30515;SDS011;17297;54.022;10.760;2023-01-01T03:40:39;5.40;;;2.97;;
30515;SDS011;17297;54.022;10.760;2023-01-01T03:43:07;5.22;;;3.28;;
30515;SDS011;17297;54.022;10.760;2023-01-01T03:45:39;5.47;;;3.88;;
30515;SDS011;17297;54.022;10.760;2023-01-01T03:48:07;5.30;;;3.60;;
30515;SDS011;17297;54.022;10.760;2023-01-01T03:50:44;4.28;;;3.15;;
30515;SDS011;17297;54.022;10.760;2023-01-01T03:53:20;5.90;;;3.63;;
30515;SDS011;17297;54.022;10.760;2023-01-01T03:58:44;7.85;;;4.50;;
30515;SDS011;17297;54.022;10.760;2023-01-01T04:01:21;7.03;;;3.60;;
30515;SDS011;17297;54.022;10.760;2023-01-01T04:03:54;4.82;;;3.85;;
30515;SDS011;17297;54.022;10.760;2023-01-01T04:06:21;7.22;;;4.45;;
30515;SDS011;17297;54.022;10.760;2023-01-01T04:08:50;5.35;;;3.90;;
30515;SDS011;17297;54.022;10.760;2023-01-01T04:11:22;8.75;;;5.00;;
30515;SDS011;17297;54.022;10.760;2023-01-01T04:14:10;5.72;;;4.40;;
30515;SDS011;17297;54.022;10.760;2023-01-01T04:16:35;6.18;;;4.20;;
30515;SDS011;17297;54.022;10.760;2023-01-01T04:19:00;5.82;;;4.05;;
30515;SDS011;17297;54.022;10.760;2023-01-01T04:21:26;6.53;;;4.45;;
30515;SDS011;17297;54.022;10.760;2023-01-01T04:23:52;4.93;;;4.07;;
30515;SDS011;17297;54.022;10.760;2023-01-01T04:26:17;6.97;;;3.95;;
30515;SDS011;17297;54.022;10.760;2023-01-01T04:28:43;5.35;;;3.88;;
30515;SDS011;17297;54.022;10.760;2023-01-01T04:31:09;7.15;;;4.57;;
30515;SDS011;17297;54.022;10.760;2023-01-01T04:33:35;7.68;;;4.68;;
30515;SDS011;17297;54.022;10.760;2023-01-01T04:36:03;8.15;;;3.90;;
30515;SDS011;17297;54.022;10.760;2023-01-01T04:38:31;7.05;;;4.80;;
30515;SDS011;17297;54.022;10.760;2023-01-01T04:40:58;6.55;;;4.55;;
30515;SDS011;17297;54.022;10.760;2023-01-01T04:43:24;6.05;;;3.90;;
30515;SDS011;17297;54.022;10.760;2023-01-01T04:45:54;6.25;;;4.30;;
30515;SDS011;17297;54.022;10.760;2023-01-01T04:48:20;6.95;;;4.70;;
30515;SDS011;17297;54.022;10.760;2023-01-01T04:50:52;7.07;;;4.85;;
30515;SDS011;17297;54.022;10.760;2023-01-01T04:53:19;7.07;;;5.22;;
30515;SDS011;17297;54.022;10.760;2023-01-01T04:55:44;8.93;;;5.13;;
30515;SDS011;17297;54.022;10.760;2023-01-01T04:58:10;6.55;;;4.72;;
30515;SDS011;17297;54.022;10.760;2023-01-01T05:00:35;7.22;;;4.50;;
30515;SDS011;17297;54.022;10.760;2023-01-01T05:03:01;8.52;;;5.15;;
30515;SDS011;17297;54.022;10.760;2023-01-01T05:05:29;6.75;;;4.53;;
30515;SDS011;17297;54.022;10.760;2023-01-01T05:07:55;6.40;;;5.20;;
30515;SDS011;17297;54.022;10.760;2023-01-01T05:10:20;6.88;;;5.28;;
30515;SDS011;17297;54.022;10.760;2023-01-01T05:12:46;9.50;;;5.05;;
30515;SDS011;17297;54.022;10.760;2023-01-01T05:15:11;8.02;;;5.90;;
30515;SDS011;17297;54.022;10.760;2023-01-01T05:17:37;7.05;;;4.70;;
30515;SDS011;17297;54.022;10.760;2023-01-01T05:20:02;6.20;;;4.55;;
30515;SDS011;17297;54.022;10.760;2023-01-01T05:22:28;8.93;;;5.65;;
30515;SDS011;17297;54.022;10.760;2023-01-01T05:24:54;5.95;;;3.90;;
30515;SDS011;17297;54.022;10.760;2023-01-01T05:27:19;6.18;;;4.95;;
30515;SDS011;17297;54.022;10.760;2023-01-01T05:29:44;7.28;;;4.50;;
30515;SDS011;17297;54.022;10.760;2023-01-01T05:32:10;6.03;;;4.28;;
30515;SDS011;17297;54.022;10.760;2023-01-01T05:34:35;6.93;;;4.78;;
30515;SDS011;17297;54.022;10.760;2023-01-01T05:37:01;7.13;;;4.38;;
30515;SDS011;17297;54.022;10.760;2023-01-01T05:39:26;6.70;;;4.72;;
30515;SDS011;17297;54.022;10.760;2023-01-01T05:41:52;10.15;;;4.55;;
30515;SDS011;17297;54.022;10.760;2023-01-01T05:44:17;6.20;;;3.70;;
30515;SDS011;17297;54.022;10.760;2023-01-01T05:46:43;5.57;;;3.60;;
30515;SDS011;17297;54.022;10.760;2023-01-01T05:49:11;5.07;;;3.35;;
30515;SDS011;17297;54.022;10.760;2023-01-01T05:51:37;6.10;;;4.00;;
30515;SDS011;17297;54.022;10.760;2023-01-01T05:54:02;5.00;;;3.55;;
30515;SDS011;17297;54.022;10.760;2023-01-01T05:56:28;4.72;;;3.42;;
30515;SDS011;17297;54.022;10.760;2023-01-01T05:58:54;6.05;;;3.33;;
30515;SDS011;17297;54.022;10.760;2023-01-01T06:01:23;5.20;;;3.60;;
30515;SDS011;17297;54.022;10.760;2023-01-01T06:03:51;4.53;;;2.80;;
30515;SDS011;17297;54.022;10.760;2023-01-01T06:06:19;4.63;;;2.80;;
30515;SDS011;17297;54.022;10.760;2023-01-01T06:08:49;6.63;;;2.65;;
30515;SDS011;17297;54.022;10.760;2023-01-01T06:11:16;3.10;;;2.40;;
30515;SDS011;17297;54.022;10.760;2023-01-01T06:13:42;4.50;;;2.97;;
30515;SDS011;17297;54.022;10.760;2023-01-01T06:16:08;4.07;;;2.53;;
30515;SDS011;17297;54.022;10.760;2023-01-01T06:18:34;6.90;;;3.92;;
30515;SDS011;17297;54.022;10.760;2023-01-01T06:21:16;4.05;;;2.55;;
30515;SDS011;17297;54.022;10.760;2023-01-01T06:23:43;3.85;;;2.20;;
30515;SDS011;17297;54.022;10.760;2023-01-01T06:26:11;3.75;;;2.20;;
30515;SDS011;17297;54.022;10.760;2023-01-01T06:28:41;3.47;;;2.85;;
30515;SDS011;17297;54.022;10.760;2023-01-01T06:31:08;2.90;;;2.22;;
30515;SDS011;17297;54.022;10.760;2023-01-01T06:33:35;2.85;;;1.98;;
30515;SDS011;17297;54.022;10.760;2023-01-01T06:36:02;2.30;;;1.73;;
30515;SDS011;17297;54.022;10.760;2023-01-01T06:38:30;3.72;;;2.35;;
30515;SDS011;17297;54.022;10.760;2023-01-01T06:40:57;2.17;;;1.45;;
30515;SDS011;17297;54.022;10.760;2023-01-01T06:43:23;3.40;;;1.98;;
30515;SDS011;17297;54.022;10.760;2023-01-01T06:46:00;3.05;;;1.88;;
30515;SDS011;17297;54.022;10.760;2023-01-01T06:48:27;3.38;;;1.70;;
30515;SDS011;17297;54.022;10.760;2023-01-01T06:50:54;2.55;;;1.52;;
30515;SDS011;17297;54.022;10.760;2023-01-01T06:53:22;2.22;;;1.70;;
30515;SDS011;17297;54.022;10.760;2023-01-01T06:55:50;9.65;;;2.58;;
30515;SDS011;17297;54.022;10.760;2023-01-01T06:58:16;5.90;;;2.67;;
30515;SDS011;17297;54.022;10.760;2023-01-01T07:00:42;2.38;;;2.17;;
30515;SDS011;17297;54.022;10.760;2023-01-01T07:03:11;4.47;;;2.20;;
30515;SDS011;17297;54.022;10.760;2023-01-01T07:05:36;3.90;;;2.60;;
30515;SDS011;17297;54.022;10.760;2023-01-01T07:08:02;2.80;;;2.50;;
30515;SDS011;17297;54.022;10.760;2023-01-01T07:10:28;6.00;;;2.60;;
30515;SDS011;17297;54.022;10.760;2023-01-01T07:12:53;3.58;;;2.50;;
30515;SDS011;17297;54.022;10.760;2023-01-01T07:15:19;3.80;;;2.88;;
30515;SDS011;17297;54.022;10.760;2023-01-01T07:17:44;5.18;;;2.92;;
30515;SDS011;17297;54.022;10.760;2023-01-01T07:20:10;3.17;;;2.30;;
30515;SDS011;17297;54.022;10.760;2023-01-01T07:22:36;4.72;;;2.58;;
30515;SDS011;17297;54.022;10.760;2023-01-01T07:25:04;3.95;;;2.30;;
30515;SDS011;17297;54.022;10.760;2023-01-01T07:27:30;4.43;;;2.63;;
30515;SDS011;17297;54.022;10.760;2023-01-01T07:29:55;3.67;;;3.00;;
30515;SDS011;17297;54.022;10.760;2023-01-01T07:32:21;3.55;;;2.65;;
30515;SDS011;17297;54.022;10.760;2023-01-01T07:34:46;4.35;;;2.90;;
30515;SDS011;17297;54.022;10.760;2023-01-01T07:37:12;4.53;;;2.83;;
30515;SDS011;17297;54.022;10.760;2023-01-01T07:39:37;6.80;;;3.22;;
30515;SDS011;17297;54.022;10.760;2023-01-01T07:42:03;3.80;;;2.30;;
30515;SDS011;17297;54.022;10.760;2023-01-01T07:44:28;3.60;;;2.75;;
30515;SDS011;17297;54.022;10.760;2023-01-01T07:47:03;4.50;;;3.03;;
30515;SDS011;17297;54.022;10.760;2023-01-01T07:49:30;4.28;;;2.40;;
30515;SDS011;17297;54.022;10.760;2023-01-01T07:51:56;3.25;;;2.47;;
30515;SDS011;17297;54.022;10.760;2023-01-01T07:54:21;3.67;;;2.25;;
30515;SDS011;17297;54.022;10.760;2023-01-01T07:56:46;5.30;;;2.33;;
30515;SDS011;17297;54.022;10.760;2023-01-01T07:59:12;4.07;;;2.47;;
30515;SDS011;17297;54.022;10.760;2023-01-01T08:01:37;4.95;;;2.22;;
30515;SDS011;17297;54.022;10.760;2023-01-01T08:04:03;4.15;;;2.33;;
30515;SDS011;17297;54.022;10.760;2023-01-01T08:06:29;4.82;;;2.38;;
30515;SDS011;17297;54.022;10.760;2023-01-01T08:08:55;3.72;;;2.47;;
30515;SDS011;17297;54.022;10.760;2023-01-01T08:11:20;3.08;;;2.17;;
30515;SDS011;17297;54.022;10.760;2023-01-01T08:13:45;3.28;;;2.00;;
30515;SDS011;17297;54.022;10.760;2023-01-01T08:16:11;6.50;;;2.22;;
30515;SDS011;17297;54.022;10.760;2023-01-01T08:18:36;2.90;;;2.03;;
30515;SDS011;17297;54.022;10.760;2023-01-01T08:21:02;1.92;;;1.40;;
30515;SDS011;17297;54.022;10.760;2023-01-01T08:23:28;2.95;;;2.10;;
30515;SDS011;17297;54.022;10.760;2023-01-01T08:25:58;4.75;;;2.45;;
30515;SDS011;17297;54.022;10.760;2023-01-01T08:28:25;5.35;;;1.92;;
30515;SDS011;17297;54.022;10.760;2023-01-01T08:30:51;1.88;;;1.52;;
30515;SDS011;17297;54.022;10.760;2023-01-01T08:33:16;2.20;;;1.80;;
30515;SDS011;17297;54.022;10.760;2023-01-01T08:35:42;4.13;;;1.48;;
30515;SDS011;17297;54.022;10.760;2023-01-01T08:38:11;3.22;;;1.75;;
30515;SDS011;17297;54.022;10.760;2023-01-01T08:40:37;2.22;;;1.52;;
30515;SDS011;17297;54.022;10.760;2023-01-01T08:43:03;2.58;;;1.40;;
30515;SDS011;17297;54.022;10.760;2023-01-01T08:45:28;2.00;;;1.42;;
30515;SDS011;17297;54.022;10.760;2023-01-01T08:47:54;2.78;;;1.75;;
30515;SDS011;17297;54.022;10.760;2023-01-01T08:50:19;3.50;;;1.75;;
30515;SDS011;17297;54.022;10.760;2023-01-01T08:52:44;5.40;;;1.52;;
30515;SDS011;17297;54.022;10.760;2023-01-01T08:55:10;6.75;;;2.22;;
30515;SDS011;17297;54.022;10.760;2023-01-01T08:57:35;2.90;;;1.30;;
30515;SDS011;17297;54.022;10.760;2023-01-01T09:00:01;1.30;;;1.20;;
30515;SDS011;17297;54.022;10.760;2023-01-01T09:02:31;3.72;;;2.20;;
30515;SDS011;17297;54.022;10.760;2023-01-01T09:04:56;3.05;;;1.60;;
30515;SDS011;17297;54.022;10.760;2023-01-01T09:07:22;12.98;;;2.33;;
30515;SDS011;17297;54.022;10.760;2023-01-01T09:09:47;1.40;;;1.13;;
30515;SDS011;17297;54.022;10.760;2023-01-01T09:12:14;1.98;;;1.17;;
30515;SDS011;17297;54.022;10.760;2023-01-01T09:14:40;2.53;;;1.33;;
30515;SDS011;17297;54.022;10.760;2023-01-01T09:17:06;1.60;;;1.42;;
30515;SDS011;17297;54.022;10.760;2023-01-01T09:19:32;2.40;;;1.20;;
30515;SDS011;17297;54.022;10.760;2023-01-01T09:21:57;1.65;;;1.13;;
30515;SDS011;17297;54.022;10.760;2023-01-01T09:24:23;4.63;;;1.67;;
30515;SDS011;17297;54.022;10.760;2023-01-01T09:26:48;1.95;;;1.15;;
30515;SDS011;17297;54.022;10.760;2023-01-01T09:29:14;2.08;;;1.05;;
30515;SDS011;17297;54.022;10.760;2023-01-01T09:31:44;3.55;;;1.75;;
30515;SDS011;17297;54.022;10.760;2023-01-01T09:34:10;1.27;;;1.08;;
30515;SDS011;17297;54.022;10.760;2023-01-01T09:36:36;2.35;;;1.38;;
30515;SDS011;17297;54.022;10.760;2023-01-01T09:39:02;4.43;;;2.22;;
30515;SDS011;17297;54.022;10.760;2023-01-01T09:42:04;1.58;;;0.85;;
30515;SDS011;17297;54.022;10.760;2023-01-01T09:44:48;2.17;;;1.00;;
30515;SDS011;17297;54.022;10.760;2023-01-01T09:47:27;0.95;;;0.70;;
30515;SDS011;17297;54.022;10.760;2023-01-01T09:49:53;1.00;;;1.00;;
30515;SDS011;17297;54.022;10.760;2023-01-01T09:52:24;0.98;;;0.88;;
30515;SDS011;17297;54.022;10.760;2023-01-01T09:54:59;1.83;;;1.30;;
30515;SDS011;17297;54.022;10.760;2023-01-01T09:57:33;1.40;;;0.80;;
30515;SDS011;17297;54.022;10.760;2023-01-01T09:59:59;2.40;;;1.08;;
30515;SDS011;17297;54.022;10.760;2023-01-01T10:05:30;1.42;;;0.90;;
30515;SDS011;17297;54.022;10.760;2023-01-01T10:11:23;1.67;;;1.00;;
30515;SDS011;17297;54.022;10.760;2023-01-01T10:13:52;1.27;;;0.80;;
30515;SDS011;17297;54.022;10.760;2023-01-01T10:16:27;2.70;;;1.15;;
30515;SDS011;17297;54.022;10.760;2023-01-01T10:19:21;2.65;;;0.90;;
30515;SDS011;17297;54.022;10.760;2023-01-01T10:21:51;2.38;;;1.45;;
30515;SDS011;17297;54.022;10.760;2023-01-01T10:24:26;0.98;;;0.85;;
30515;SDS011;17297;54.022;10.760;2023-01-01T10:26:55;1.95;;;0.90;;
30515;SDS011;17297;54.022;10.760;2023-01-01T10:29:23;1.83;;;1.10;;
30515;SDS011;17297;54.022;10.760;2023-01-01T10:32:15;2.50;;;0.80;;
30515;SDS011;17297;54.022;10.760;2023-01-01T10:34:50;1.08;;;0.80;;
30515;SDS011;17297;54.022;10.760;2023-01-01T10:37:16;1.67;;;0.80;;
30515;SDS011;17297;54.022;10.760;2023-01-01T10:39:42;2.72;;;0.80;;
30515;SDS011;17297;54.022;10.760;2023-01-01T10:42:12;1.73;;;0.90;;
30515;SDS011;17297;54.022;10.760;2023-01-01T10:44:39;3.03;;;1.30;;
30515;SDS011;17297;54.022;10.760;2023-01-01T10:49:58;1.27;;;1.17;;
30515;SDS011;17297;54.022;10.760;2023-01-01T10:52:35;2.58;;;1.35;;
30515;SDS011;17297;54.022;10.760;2023-01-01T10:55:03;1.42;;;1.13;;
30515;SDS011;17297;54.022;10.760;2023-01-01T10:57:30;1.27;;;1.00;;
30515;SDS011;17297;54.022;10.760;2023-01-01T11:00:19;1.55;;;1.05;;
30515;SDS011;17297;54.022;10.760;2023-01-01T11:03:10;2.90;;;1.00;;
30515;SDS011;17297;54.022;10.760;2023-01-01T11:05:38;2.17;;;0.95;;
30515;SDS011;17297;54.022;10.760;2023-01-01T11:08:14;2.15;;;1.17;;
30515;SDS011;17297;54.022;10.760;2023-01-01T11:10:48;3.22;;;1.10;;
30515;SDS011;17297;54.022;10.760;2023-01-01T11:13:19;2.13;;;1.10;;
30515;SDS011;17297;54.022;10.760;2023-01-01T11:15:46;2.65;;;1.27;;
30515;SDS011;17297;54.022;10.760;2023-01-01T11:18:16;1.98;;;0.90;;
30515;SDS011;17297;54.022;10.760;2023-01-01T11:20:56;2.45;;;0.90;;
30515;SDS011;17297;54.022;10.760;2023-01-01T11:28:27;1.95;;;1.00;;
30515;SDS011;17297;54.022;10.760;2023-01-01T11:31:00;2.60;;;1.10;;
30515;SDS011;17297;54.022;10.760;2023-01-01T11:33:49;2.10;;;1.10;;
30515;SDS011;17297;54.022;10.760;2023-01-01T11:36:27;3.63;;;1.25;;
30515;SDS011;17297;54.022;10.760;2023-01-01T11:41:42;1.67;;;0.85;;
30515;SDS011;17297;54.022;10.760;2023-01-01T11:44:12;0.95;;;0.80;;
30515;SDS011;17297;54.022;10.760;2023-01-01T11:46:50;2.40;;;1.02;;
30515;SDS011;17297;54.022;10.760;2023-01-01T11:49:26;2.72;;;1.55;;
30515;SDS011;17297;54.022;10.760;2023-01-01T11:51:54;1.65;;;0.80;;
30515;SDS011;17297;54.022;10.760;2023-01-01T11:54:24;4.10;;;1.50;;
30515;SDS011;17297;54.022;10.760;2023-01-01T11:56:53;2.40;;;1.08;;
30515;SDS011;17297;54.022;10.760;2023-01-01T11:59:24;4.80;;;1.42;;
30515;SDS011;17297;54.022;10.760;2023-01-01T12:02:03;4.35;;;1.30;;
30515;SDS011;17297;54.022;10.760;2023-01-01T12:04:36;5.22;;;1.67;;
30515;SDS011;17297;54.022;10.760;2023-01-01T12:07:24;4.53;;;1.30;;
30515;SDS011;17297;54.022;10.760;2023-01-01T12:12:29;7.70;;;1.60;;
30515;SDS011;17297;54.022;10.760;2023-01-01T12:15:17;2.60;;;1.73;;
30515;SDS011;17297;54.022;10.760;2023-01-01T12:21:08;1.50;;;1.10;;
30515;SDS011;17297;54.022;10.760;2023-01-01T12:23:35;3.22;;;1.40;;
30515;SDS011;17297;54.022;10.760;2023-01-01T12:31:56;3.35;;;2.03;;
30515;SDS011;17297;54.022;10.760;2023-01-01T12:34:42;3.50;;;1.27;;
30515;SDS011;17297;54.022;10.760;2023-01-01T12:37:28;4.30;;;1.17;;
30515;SDS011;17297;54.022;10.760;2023-01-01T12:40:30;1.75;;;0.88;;
30515;SDS011;17297;54.022;10.760;2023-01-01T12:43:02;1.25;;;0.85;;
30515;SDS011;17297;54.022;10.760;2023-01-01T12:48:25;4.75;;;1.20;;
30515;SDS011;17297;54.022;10.760;2023-01-01T12:51:06;2.80;;;1.30;;
30515;SDS011;17297;54.022;10.760;2023-01-01T12:56:40;1.40;;;1.00;;
30515;SDS011;17297;54.022;10.760;2023-01-01T12:59:17;2.05;;;1.45;;
30515;SDS011;17297;54.022;10.760;2023-01-01T13:01:50;3.55;;;0.93;;
30515;SDS011;17297;54.022;10.760;2023-01-01T13:04:20;3.83;;;1.10;;
30515;SDS011;17297;54.022;10.760;2023-01-01T13:09:17;1.27;;;0.90;;
30515;SDS011;17297;54.022;10.760;2023-01-01T13:11:44;2.65;;;0.82;;
30515;SDS011;17297;54.022;10.760;2023-01-01T13:14:14;1.95;;;1.20;;
30515;SDS011;17297;54.022;10.760;2023-01-01T13:16:41;2.17;;;0.88;;
30515;SDS011;17297;54.022;10.760;2023-01-01T13:21:56;2.13;;;1.30;;
30515;SDS011;17297;54.022;10.760;2023-01-01T13:24:41;5.53;;;1.60;;
30515;SDS011;17297;54.022;10.760;2023-01-01T13:33:26;3.58;;;1.08;;
30515;SDS011;17297;54.022;10.760;2023-01-01T14:00:19;3.47;;;0.90;;
30515;SDS011;17297;54.022;10.760;2023-01-01T14:05:37;1.80;;;1.02;;
30515;SDS011;17297;54.022;10.760;2023-01-01T14:08:29;2.47;;;1.00;;
30515;SDS011;17297;54.022;10.760;2023-01-01T14:10:56;2.30;;;1.10;;
30515;SDS011;17297;54.022;10.760;2023-01-01T14:13:25;3.25;;;0.90;;
30515;SDS011;17297;54.022;10.760;2023-01-01T14:15:57;2.95;;;1.88;;
30515;SDS011;17297;54.022;10.760;2023-01-01T14:18:32;4.97;;;1.27;;
30515;SDS011;17297;54.022;10.760;2023-01-01T14:21:02;1.95;;;1.38;;
30515;SDS011;17297;54.022;10.760;2023-01-01T14:23:40;2.58;;;1.13;;
30515;SDS011;17297;54.022;10.760;2023-01-01T14:26:09;2.80;;;1.00;;
30515;SDS011;17297;54.022;10.760;2023-01-01T14:28:37;3.00;;;1.35;;
30515;SDS011;17297;54.022;10.760;2023-01-01T14:31:05;2.50;;;1.13;;
30515;SDS011;17297;54.022;10.760;2023-01-01T14:33:36;1.17;;;0.95;;
30515;SDS011;17297;54.022;10.760;2023-01-01T14:36:13;1.92;;;0.90;;
30515;SDS011;17297;54.022;10.760;2023-01-01T14:38:45;4.15;;;1.02;;
30515;SDS011;17297;54.022;10.760;2023-01-01T14:41:26;3.05;;;1.60;;
30515;SDS011;17297;54.022;10.760;2023-01-01T14:43:58;3.67;;;1.00;;
30515;SDS011;17297;54.022;10.760;2023-01-01T14:46:29;4.38;;;1.17;;
30515;SDS011;17297;54.022;10.760;2023-01-01T14:48:56;2.67;;;1.52;;
30515;SDS011;17297;54.022;10.760;2023-01-01T14:51:24;3.53;;;1.20;;
30515;SDS011;17297;54.022;10.760;2023-01-01T14:53:53;3.97;;;1.35;;
30515;SDS011;17297;54.022;10.760;2023-01-01T14:58:55;4.03;;;0.90;;
30515;SDS011;17297;54.022;10.760;2023-01-01T15:01:29;2.65;;;0.95;;
30515;SDS011;17297;54.022;10.760;2023-01-01T15:04:00;4.68;;;1.83;;
30515;SDS011;17297;54.022;10.760;2023-01-01T15:06:30;2.55;;;1.05;;
30515;SDS011;17297;54.022;10.760;2023-01-01T15:08:57;1.48;;;0.77;;
30515;SDS011;17297;54.022;10.760;2023-01-01T15:11:22;2.50;;;1.02;;
30515;SDS011;17297;54.022;10.760;2023-01-01T15:13:56;2.08;;;1.00;;
30515;SDS011;17297;54.022;10.760;2023-01-01T15:16:26;2.97;;;1.63;;
30515;SDS011;17297;54.022;10.760;2023-01-01T15:18:53;1.33;;;0.80;;
30515;SDS011;17297;54.022;10.760;2023-01-01T15:21:31;3.22;;;1.15;;
30515;SDS011;17297;54.022;10.760;2023-01-01T15:24:02;3.25;;;1.20;;
30515;SDS011;17297;54.022;10.760;2023-01-01T15:26:52;4.70;;;1.55;;
30515;SDS011;17297;54.022;10.760;2023-01-01T15:31:48;4.05;;;1.35;;
30515;SDS011;17297;54.022;10.760;2023-01-01T15:36:48;6.70;;;1.75;;
30515;SDS011;17297;54.022;10.760;2023-01-01T15:39:16;1.77;;;1.00;;
30515;SDS011;17297;54.022;10.760;2023-01-01T15:41:49;2.33;;;1.27;;
30515;SDS011;17297;54.022;10.760;2023-01-01T15:47:02;2.83;;;1.30;;
30515;SDS011;17297;54.022;10.760;2023-01-01T15:49:30;3.65;;;1.08;;
30515;SDS011;17297;54.022;10.760;2023-01-01T15:52:01;1.50;;;1.00;;
30515;SDS011;17297;54.022;10.760;2023-01-01T15:54:29;1.30;;;0.90;;
30515;SDS011;17297;54.022;10.760;2023-01-01T15:56:58;2.58;;;1.00;;
30515;SDS011;17297;54.022;10.760;2023-01-01T15:59:33;3.08;;;1.13;;
30515;SDS011;17297;54.022;10.760;2023-01-01T16:02:04;2.50;;;1.33;;
30515;SDS011;17297;54.022;10.760;2023-01-01T16:04:46;1.20;;;1.00;;
30515;SDS011;17297;54.022;10.760;2023-01-01T16:07:15;5.60;;;1.27;;
30515;SDS011;17297;54.022;10.760;2023-01-01T16:09:45;1.95;;;1.17;;
30515;SDS011;17297;54.022;10.760;2023-01-01T16:12:12;5.05;;;1.30;;
30515;SDS011;17297;54.022;10.760;2023-01-01T16:14:37;2.80;;;1.40;;
30515;SDS011;17297;54.022;10.760;2023-01-01T16:17:03;2.15;;;1.45;;
30515;SDS011;17297;54.022;10.760;2023-01-01T16:19:29;1.95;;;0.88;;
30515;SDS011;17297;54.022;10.760;2023-01-01T16:21:55;5.97;;;1.92;;
30515;SDS011;17297;54.022;10.760;2023-01-01T16:24:21;2.80;;;1.20;;
30515;SDS011;17297;54.022;10.760;2023-01-01T16:26:48;3.17;;;1.20;;
30515;SDS011;17297;54.022;10.760;2023-01-01T16:29:13;2.70;;;1.30;;
30515;SDS011;17297;54.022;10.760;2023-01-01T16:31:40;2.38;;;1.45;;
30515;SDS011;17297;54.022;10.760;2023-01-01T16:34:09;1.45;;;1.33;;
30515;SDS011;17297;54.022;10.760;2023-01-01T16:36:36;4.70;;;1.13;;
30515;SDS011;17297;54.022;10.760;2023-01-01T16:39:02;1.88;;;0.90;;
30515;SDS011;17297;54.022;10.760;2023-01-01T16:41:28;6.38;;;1.40;;
30515;SDS011;17297;54.022;10.760;2023-01-01T16:43:54;3.45;;;0.90;;